sensor_id;sensor_type;location;lat;lon;timestamp;P1;durP1;ratioP1;P2;durP2;ratioP2
68765;SDS011;55756;45.582;11.484;2023-04-16T00:00:38;10.18;;;4.18;;
68765;SDS011;55756;45.582;11.484;2023-04-16T00:03:04;10.43;;;4.40;;
68765;SDS011;55756;45.582;11.484;2023-04-16T00:05:29;9.18;;;4.45;;
68765;SDS011;55756;45.582;11.484;2023-04-16T00:07:55;9.55;;;4.40;;
68765;SDS011;55756;45.582;11.484;2023-04-16T00:10:21;10.32;;;4.40;;
68765;SDS011;55756;45.582;11.484;2023-04-16T00:12:47;11.90;;;4.38;;
68765;SDS011;55756;45.582;11.484;2023-04-16T00:15:12;10.20;;;4.57;;
68765;SDS011;55756;45.582;11.484;2023-04-16T00:17:38;12.50;;;4.78;;
68765;SDS011;55756;45.582;11.484;2023-04-16T00:20:04;10.73;;;4.50;;
68765;SDS011;55756;45.582;11.484;2023-04-16T00:22:30;10.02;;;4.70;;
68765;SDS011;55756;45.582;11.484;2023-04-16T00:24:56;11.70;;;4.35;;
68765;SDS011;55756;45.582;11.484;2023-04-16T00:27:22;11.23;;;4.47;;
68765;SDS011;55756;45.582;11.484;2023-04-16T00:29:48;10.65;;;4.40;;
68765;SDS011;55756;45.582;11.484;2023-04-16T00:32:13;11.07;;;4.47;;
68765;SDS011;55756;45.582;11.484;2023-04-16T00:34:40;10.52;;;4.00;;
68765;SDS011;55756;45.582;11.484;2023-04-16T00:37:06;9.75;;;4.25;;
68765;SDS011;55756;45.582;11.484;2023-04-16T00:39:31;10.20;;;4.40;;
68765;SDS011;55756;45.582;11.484;2023-04-16T00:41:57;10.13;;;4.05;;
68765;SDS011;55756;45.582;11.484;2023-04-16T00:44:23;9.70;;;4.10;;
68765;SDS011;55756;45.582;11.484;2023-04-16T00:46:49;9.20;;;4.28;;
68765;SDS011;55756;45.582;11.484;2023-04-16T00:49:15;12.20;;;4.70;;
68765;SDS011;55756;45.582;11.484;2023-04-16T00:51:41;9.75;;;4.22;;
68765;SDS011;55756;45.582;11.484;2023-04-16T00:54:07;11.80;;;4.75;;
68765;SDS011;55756;45.582;11.484;2023-04-16T00:56:33;9.93;;;4.28;;
68765;SDS011;55756;45.582;11.484;2023-04-16T00:59:00;10.25;;;4.15;;
68765;SDS011;55756;45.582;11.484;2023-04-16T01:01:26;9.38;;;4.10;;
68765;SDS011;55756;45.582;11.484;2023-04-16T01:03:52;8.88;;;4.03;;
68765;SDS011;55756;45.582;11.484;2023-04-16T01:06:20;10.40;;;3.97;;
68765;SDS011;55756;45.582;11.484;2023-04-16T01:08:47;8.50;;;4.28;;
68765;SDS011;55756;45.582;11.484;2023-04-16T01:11:13;9.55;;;4.30;;
68765;SDS011;55756;45.582;11.484;2023-04-16T01:13:39;10.65;;;4.40;;
68765;SDS011;55756;45.582;11.484;2023-04-16T01:16:05;9.38;;;4.60;;
68765;SDS011;55756;45.582;11.484;2023-04-16T01:18:32;9.23;;;4.38;;
68765;SDS011;55756;45.582;11.484;2023-04-16T01:20:58;8.95;;;4.32;;
68765;SDS011;55756;45.582;11.484;2023-04-16T01:23:24;11.18;;;4.10;;
68765;SDS011;55756;45.582;11.484;2023-04-16T01:25:51;8.73;;;4.10;;
68765;SDS011;55756;45.582;11.484;2023-04-16T01:28:17;8.25;;;3.75;;
68765;SDS011;55756;45.582;11.484;2023-04-16T01:30:43;8.68;;;3.53;;
68765;SDS011;55756;45.582;11.484;2023-04-16T01:33:22;8.48;;;3.33;;
68765;SDS011;55756;45.582;11.484;2023-04-16T01:35:48;7.82;;;3.47;;
68765;SDS011;55756;45.582;11.484;2023-04-16T01:38:14;8.48;;;3.22;;
68765;SDS011;55756;45.582;11.484;2023-04-16T01:40:40;8.65;;;2.80;;
68765;SDS011;55756;45.582;11.484;2023-04-16T01:43:06;7.40;;;2.85;;
68765;SDS011;55756;45.582;11.484;2023-04-16T01:45:32;9.43;;;3.15;;
68765;SDS011;55756;45.582;11.484;2023-04-16T01:47:58;7.40;;;3.22;;
68765;SDS011;55756;45.582;11.484;2023-04-16T01:50:24;9.60;;;3.47;;
68765;SDS011;55756;45.582;11.484;2023-04-16T01:52:50;8.52;;;3.47;;
68765;SDS011;55756;45.582;11.484;2023-04-16T01:55:16;8.23;;;3.53;;
68765;SDS011;55756;45.582;11.484;2023-04-16T01:57:42;8.65;;;3.60;;
68765;SDS011;55756;45.582;11.484;2023-04-16T02:00:11;8.52;;;3.58;;
68765;SDS011;55756;45.582;11.484;2023-04-16T02:02:45;8.43;;;3.40;;
68765;SDS011;55756;45.582;11.484;2023-04-16T02:05:19;7.90;;;3.20;;
68765;SDS011;55756;45.582;11.484;2023-04-16T02:07:45;7.65;;;3.20;;
68765;SDS011;55756;45.582;11.484;2023-04-16T02:10:11;10.30;;;3.45;;
68765;SDS011;55756;45.582;11.484;2023-04-16T02:12:38;7.57;;;3.20;;
68765;SDS011;55756;45.582;11.484;2023-04-16T02:15:04;7.85;;;3.17;;
68765;SDS011;55756;45.582;11.484;2023-04-16T02:17:30;9.02;;;3.30;;
68765;SDS011;55756;45.582;11.484;2023-04-16T02:20:05;7.65;;;2.72;;
68765;SDS011;55756;45.582;11.484;2023-04-16T02:22:36;7.82;;;2.90;;
68765;SDS011;55756;45.582;11.484;2023-04-16T02:25:02;6.97;;;2.70;;
68765;SDS011;55756;45.582;11.484;2023-04-16T02:27:29;7.53;;;2.90;;
68765;SDS011;55756;45.582;11.484;2023-04-16T02:30:06;6.80;;;2.75;;
68765;SDS011;55756;45.582;11.484;2023-04-16T02:32:34;7.30;;;2.83;;
68765;SDS011;55756;45.582;11.484;2023-04-16T02:35:01;6.85;;;2.50;;
68765;SDS011;55756;45.582;11.484;2023-04-16T02:37:28;7.57;;;2.80;;
68765;SDS011;55756;45.582;11.484;2023-04-16T02:39:54;6.32;;;2.72;;
68765;SDS011;55756;45.582;11.484;2023-04-16T02:42:20;6.75;;;3.03;;
68765;SDS011;55756;45.582;11.484;2023-04-16T02:44:46;9.00;;;3.40;;
68765;SDS011;55756;45.582;11.484;2023-04-16T02:47:11;9.40;;;3.50;;
68765;SDS011;55756;45.582;11.484;2023-04-16T02:49:37;7.75;;;3.30;;
68765;SDS011;55756;45.582;11.484;2023-04-16T02:52:03;7.78;;;3.08;;
68765;SDS011;55756;45.582;11.484;2023-04-16T02:54:28;9.95;;;3.70;;
68765;SDS011;55756;45.582;11.484;2023-04-16T02:56:54;11.45;;;4.32;;
68765;SDS011;55756;45.582;11.484;2023-04-16T02:59:20;9.82;;;4.60;;
68765;SDS011;55756;45.582;11.484;2023-04-16T03:01:46;9.88;;;4.22;;
68765;SDS011;55756;45.582;11.484;2023-04-16T03:04:12;9.90;;;4.35;;
68765;SDS011;55756;45.582;11.484;2023-04-16T03:06:38;13.23;;;3.88;;
68765;SDS011;55756;45.582;11.484;2023-04-16T03:09:04;8.68;;;3.63;;
68765;SDS011;55756;45.582;11.484;2023-04-16T03:11:29;12.80;;;4.00;;
68765;SDS011;55756;45.582;11.484;2023-04-16T03:13:55;10.25;;;3.95;;
68765;SDS011;55756;45.582;11.484;2023-04-16T03:16:21;11.23;;;4.00;;
68765;SDS011;55756;45.582;11.484;2023-04-16T03:18:47;8.88;;;3.80;;
68765;SDS011;55756;45.582;11.484;2023-04-16T03:21:12;11.00;;;4.13;;
68765;SDS011;55756;45.582;11.484;2023-04-16T03:23:38;11.35;;;4.38;;
68765;SDS011;55756;45.582;11.484;2023-04-16T03:26:04;8.25;;;3.40;;
68765;SDS011;55756;45.582;11.484;2023-04-16T03:28:31;9.38;;;3.35;;
68765;SDS011;55756;45.582;11.484;2023-04-16T03:30:56;8.40;;;3.53;;
68765;SDS011;55756;45.582;11.484;2023-04-16T03:33:22;7.57;;;3.10;;
68765;SDS011;55756;45.582;11.484;2023-04-16T03:35:56;8.15;;;3.20;;
68765;SDS011;55756;45.582;11.484;2023-04-16T03:38:24;7.40;;;2.88;;
68765;SDS011;55756;45.582;11.484;2023-04-16T03:40:51;7.88;;;3.15;;
68765;SDS011;55756;45.582;11.484;2023-04-16T03:43:17;8.27;;;3.00;;
68765;SDS011;55756;45.582;11.484;2023-04-16T03:45:44;6.57;;;2.85;;
68765;SDS011;55756;45.582;11.484;2023-04-16T03:48:11;6.72;;;2.80;;
68765;SDS011;55756;45.582;11.484;2023-04-16T03:50:37;7.63;;;2.97;;
68765;SDS011;55756;45.582;11.484;2023-04-16T03:53:05;6.22;;;2.78;;
68765;SDS011;55756;45.582;11.484;2023-04-16T03:55:32;8.35;;;2.92;;
68765;SDS011;55756;45.582;11.484;2023-04-16T03:57:58;6.47;;;2.60;;
68765;SDS011;55756;45.582;11.484;2023-04-16T04:00:27;7.10;;;2.72;;
68765;SDS011;55756;45.582;11.484;2023-04-16T04:03:04;7.65;;;2.72;;
68765;SDS011;55756;45.582;11.484;2023-04-16T04:05:34;6.82;;;2.90;;
68765;SDS011;55756;45.582;11.484;2023-04-16T04:08:01;7.85;;;3.00;;
68765;SDS011;55756;45.582;11.484;2023-04-16T04:10:30;7.47;;;2.92;;
68765;SDS011;55756;45.582;11.484;2023-04-16T04:15:23;8.60;;;3.00;;
68765;SDS011;55756;45.582;11.484;2023-04-16T04:17:50;7.43;;;2.70;;
68765;SDS011;55756;45.582;11.484;2023-04-16T04:20:16;7.20;;;3.33;;
68765;SDS011;55756;45.582;11.484;2023-04-16T04:22:44;7.68;;;2.97;;
68765;SDS011;55756;45.582;11.484;2023-04-16T04:25:10;6.50;;;3.10;;
68765;SDS011;55756;45.582;11.484;2023-04-16T04:27:36;8.88;;;3.08;;
68765;SDS011;55756;45.582;11.484;2023-04-16T04:30:02;7.55;;;3.20;;
68765;SDS011;55756;45.582;11.484;2023-04-16T04:32:33;7.25;;;3.03;;
68765;SDS011;55756;45.582;11.484;2023-04-16T04:35:00;7.95;;;3.35;;
68765;SDS011;55756;45.582;11.484;2023-04-16T04:37:26;8.18;;;3.25;;
68765;SDS011;55756;45.582;11.484;2023-04-16T04:39:52;8.32;;;3.03;;
68765;SDS011;55756;45.582;11.484;2023-04-16T04:42:19;7.57;;;3.20;;
68765;SDS011;55756;45.582;11.484;2023-04-16T04:44:45;7.47;;;3.03;;
68765;SDS011;55756;45.582;11.484;2023-04-16T04:47:12;8.38;;;3.00;;
68765;SDS011;55756;45.582;11.484;2023-04-16T04:49:41;8.88;;;3.20;;
68765;SDS011;55756;45.582;11.484;2023-04-16T04:52:07;8.00;;;3.30;;
68765;SDS011;55756;45.582;11.484;2023-04-16T04:54:33;8.88;;;3.00;;
68765;SDS011;55756;45.582;11.484;2023-04-16T04:57:00;7.32;;;3.17;;
68765;SDS011;55756;45.582;11.484;2023-04-16T04:59:27;8.07;;;3.10;;
68765;SDS011;55756;45.582;11.484;2023-04-16T05:01:53;8.95;;;3.13;;
68765;SDS011;55756;45.582;11.484;2023-04-16T05:04:19;9.18;;;3.20;;
68765;SDS011;55756;45.582;11.484;2023-04-16T05:06:45;7.85;;;3.20;;
68765;SDS011;55756;45.582;11.484;2023-04-16T05:09:11;8.35;;;2.70;;
68765;SDS011;55756;45.582;11.484;2023-04-16T05:11:37;7.75;;;2.63;;
68765;SDS011;55756;45.582;11.484;2023-04-16T05:14:03;7.20;;;2.75;;
68765;SDS011;55756;45.582;11.484;2023-04-16T05:16:29;7.72;;;2.40;;
68765;SDS011;55756;45.582;11.484;2023-04-16T05:18:55;6.30;;;2.20;;
68765;SDS011;55756;45.582;11.484;2023-04-16T05:21:22;5.40;;;2.10;;
68765;SDS011;55756;45.582;11.484;2023-04-16T05:23:48;7.28;;;2.45;;
68765;SDS011;55756;45.582;11.484;2023-04-16T05:26:13;7.13;;;2.38;;
68765;SDS011;55756;45.582;11.484;2023-04-16T05:28:39;8.68;;;2.58;;
68765;SDS011;55756;45.582;11.484;2023-04-16T05:31:05;7.65;;;2.40;;
68765;SDS011;55756;45.582;11.484;2023-04-16T05:33:31;5.65;;;2.35;;
68765;SDS011;55756;45.582;11.484;2023-04-16T05:35:56;6.10;;;2.40;;
68765;SDS011;55756;45.582;11.484;2023-04-16T05:38:22;5.85;;;2.10;;
68765;SDS011;55756;45.582;11.484;2023-04-16T05:40:48;5.88;;;2.30;;
68765;SDS011;55756;45.582;11.484;2023-04-16T05:43:13;5.28;;;2.03;;
68765;SDS011;55756;45.582;11.484;2023-04-16T05:45:39;6.75;;;2.20;;
68765;SDS011;55756;45.582;11.484;2023-04-16T05:48:08;5.28;;;2.10;;
68765;SDS011;55756;45.582;11.484;2023-04-16T05:50:35;5.40;;;2.00;;
68765;SDS011;55756;45.582;11.484;2023-04-16T05:53:01;8.15;;;2.20;;
68765;SDS011;55756;45.582;11.484;2023-04-16T05:55:28;6.88;;;2.10;;
68765;SDS011;55756;45.582;11.484;2023-04-16T05:57:53;7.40;;;2.13;;
68765;SDS011;55756;45.582;11.484;2023-04-16T06:00:19;7.22;;;2.30;;
68765;SDS011;55756;45.582;11.484;2023-04-16T06:02:45;5.40;;;2.10;;
68765;SDS011;55756;45.582;11.484;2023-04-16T06:05:11;7.07;;;2.50;;
68765;SDS011;55756;45.582;11.484;2023-04-16T06:07:36;6.25;;;2.40;;
68765;SDS011;55756;45.582;11.484;2023-04-16T06:10:02;7.35;;;2.50;;
68765;SDS011;55756;45.582;11.484;2023-04-16T06:12:28;6.80;;;2.70;;
68765;SDS011;55756;45.582;11.484;2023-04-16T06:14:54;8.23;;;2.45;;
68765;SDS011;55756;45.582;11.484;2023-04-16T06:17:20;8.75;;;2.70;;
68765;SDS011;55756;45.582;11.484;2023-04-16T06:19:46;7.45;;;2.60;;
68765;SDS011;55756;45.582;11.484;2023-04-16T06:22:12;8.88;;;2.63;;
68765;SDS011;55756;45.582;11.484;2023-04-16T06:24:38;8.82;;;3.10;;
68765;SDS011;55756;45.582;11.484;2023-04-16T06:27:04;6.72;;;2.60;;
68765;SDS011;55756;45.582;11.484;2023-04-16T06:29:30;6.28;;;2.55;;
68765;SDS011;55756;45.582;11.484;2023-04-16T06:31:56;7.57;;;2.40;;
68765;SDS011;55756;45.582;11.484;2023-04-16T06:34:22;7.65;;;2.60;;
68765;SDS011;55756;45.582;11.484;2023-04-16T06:36:47;7.38;;;2.65;;
68765;SDS011;55756;45.582;11.484;2023-04-16T06:39:13;9.95;;;3.10;;
68765;SDS011;55756;45.582;11.484;2023-04-16T06:41:39;7.95;;;3.08;;
68765;SDS011;55756;45.582;11.484;2023-04-16T06:44:05;8.75;;;3.00;;
68765;SDS011;55756;45.582;11.484;2023-04-16T06:46:31;7.57;;;2.80;;
68765;SDS011;55756;45.582;11.484;2023-04-16T06:48:56;7.93;;;2.97;;
68765;SDS011;55756;45.582;11.484;2023-04-16T06:51:22;7.28;;;2.85;;
68765;SDS011;55756;45.582;11.484;2023-04-16T06:53:48;8.68;;;3.00;;
68765;SDS011;55756;45.582;11.484;2023-04-16T06:56:14;8.57;;;2.90;;
68765;SDS011;55756;45.582;11.484;2023-04-16T06:58:39;7.28;;;2.97;;
68765;SDS011;55756;45.582;11.484;2023-04-16T07:01:07;7.53;;;2.78;;
68765;SDS011;55756;45.582;11.484;2023-04-16T07:03:34;10.07;;;3.45;;
68765;SDS011;55756;45.582;11.484;2023-04-16T07:06:00;8.05;;;3.10;;
68765;SDS011;55756;45.582;11.484;2023-04-16T07:08:26;10.75;;;3.13;;
68765;SDS011;55756;45.582;11.484;2023-04-16T07:10:52;8.15;;;3.00;;
68765;SDS011;55756;45.582;11.484;2023-04-16T07:13:18;8.52;;;3.25;;
68765;SDS011;55756;45.582;11.484;2023-04-16T07:15:45;8.13;;;2.78;;
68765;SDS011;55756;45.582;11.484;2023-04-16T07:18:11;7.85;;;3.00;;
68765;SDS011;55756;45.582;11.484;2023-04-16T07:20:37;6.68;;;2.50;;
68765;SDS011;55756;45.582;11.484;2023-04-16T07:23:03;6.20;;;2.60;;
68765;SDS011;55756;45.582;11.484;2023-04-16T07:25:29;7.35;;;2.90;;
68765;SDS011;55756;45.582;11.484;2023-04-16T07:27:54;6.47;;;2.58;;
68765;SDS011;55756;45.582;11.484;2023-04-16T07:30:20;8.02;;;2.83;;
68765;SDS011;55756;45.582;11.484;2023-04-16T07:32:46;7.53;;;2.78;;
68765;SDS011;55756;45.582;11.484;2023-04-16T07:35:11;7.82;;;2.50;;
68765;SDS011;55756;45.582;11.484;2023-04-16T07:37:37;7.13;;;2.63;;
68765;SDS011;55756;45.582;11.484;2023-04-16T07:40:03;16.75;;;3.40;;
68765;SDS011;55756;45.582;11.484;2023-04-16T07:42:29;11.73;;;2.97;;
68765;SDS011;55756;45.582;11.484;2023-04-16T07:44:55;16.15;;;2.90;;
68765;SDS011;55756;45.582;11.484;2023-04-16T07:47:20;12.77;;;3.05;;
68765;SDS011;55756;45.582;11.484;2023-04-16T07:49:50;10.98;;;2.65;;
68765;SDS011;55756;45.582;11.484;2023-04-16T07:52:16;6.88;;;2.67;;
68765;SDS011;55756;45.582;11.484;2023-04-16T07:54:42;10.10;;;2.60;;
68765;SDS011;55756;45.582;11.484;2023-04-16T07:57:08;5.90;;;2.15;;
68765;SDS011;55756;45.582;11.484;2023-04-16T07:59:34;6.78;;;2.10;;
68765;SDS011;55756;45.582;11.484;2023-04-16T08:01:59;6.65;;;2.10;;
68765;SDS011;55756;45.582;11.484;2023-04-16T08:04:25;5.47;;;2.10;;
68765;SDS011;55756;45.582;11.484;2023-04-16T08:06:51;7.03;;;2.00;;
68765;SDS011;55756;45.582;11.484;2023-04-16T08:09:18;4.75;;;1.83;;
68765;SDS011;55756;45.582;11.484;2023-04-16T08:11:45;5.30;;;1.80;;
68765;SDS011;55756;45.582;11.484;2023-04-16T08:14:13;7.70;;;1.95;;
68765;SDS011;55756;45.582;11.484;2023-04-16T08:16:43;4.60;;;1.50;;
68765;SDS011;55756;45.582;11.484;2023-04-16T08:19:14;5.25;;;1.70;;
68765;SDS011;55756;45.582;11.484;2023-04-16T08:21:39;6.10;;;1.65;;
68765;SDS011;55756;45.582;11.484;2023-04-16T08:24:05;5.55;;;1.60;;
68765;SDS011;55756;45.582;11.484;2023-04-16T08:26:31;5.88;;;1.70;;
68765;SDS011;55756;45.582;11.484;2023-04-16T08:28:57;4.95;;;1.52;;
68765;SDS011;55756;45.582;11.484;2023-04-16T08:31:22;5.28;;;1.50;;
68765;SDS011;55756;45.582;11.484;2023-04-16T08:33:48;4.35;;;1.40;;
68765;SDS011;55756;45.582;11.484;2023-04-16T08:36:14;7.55;;;1.60;;
68765;SDS011;55756;45.582;11.484;2023-04-16T08:38:40;6.55;;;1.85;;
68765;SDS011;55756;45.582;11.484;2023-04-16T08:41:05;5.95;;;1.70;;
68765;SDS011;55756;45.582;11.484;2023-04-16T08:43:36;4.70;;;1.58;;
68765;SDS011;55756;45.582;11.484;2023-04-16T08:46:04;5.20;;;1.52;;
68765;SDS011;55756;45.582;11.484;2023-04-16T08:48:32;5.00;;;1.55;;
68765;SDS011;55756;45.582;11.484;2023-04-16T08:50:59;3.30;;;1.50;;
68765;SDS011;55756;45.582;11.484;2023-04-16T08:53:38;5.35;;;1.80;;
68765;SDS011;55756;45.582;11.484;2023-04-16T08:56:24;6.33;;;1.70;;
68765;SDS011;55756;45.582;11.484;2023-04-16T08:58:50;5.57;;;1.90;;
68765;SDS011;55756;45.582;11.484;2023-04-16T09:01:18;4.82;;;1.52;;
68765;SDS011;55756;45.582;11.484;2023-04-16T09:03:49;7.57;;;1.70;;
68765;SDS011;55756;45.582;11.484;2023-04-16T09:06:15;8.13;;;1.92;;
68765;SDS011;55756;45.582;11.484;2023-04-16T09:08:43;5.40;;;1.63;;
68765;SDS011;55756;45.582;11.484;2023-04-16T09:11:10;5.65;;;1.67;;
68765;SDS011;55756;45.582;11.484;2023-04-16T09:13:37;6.53;;;1.70;;
68765;SDS011;55756;45.582;11.484;2023-04-16T09:16:04;4.82;;;1.52;;
68765;SDS011;55756;45.582;11.484;2023-04-16T09:18:31;5.55;;;1.73;;
68765;SDS011;55756;45.582;11.484;2023-04-16T09:20:57;5.60;;;1.45;;
68765;SDS011;55756;45.582;11.484;2023-04-16T09:23:28;5.90;;;1.42;;
68765;SDS011;55756;45.582;11.484;2023-04-16T09:25:56;5.03;;;1.50;;
68765;SDS011;55756;45.582;11.484;2023-04-16T09:31:09;4.72;;;1.40;;
68765;SDS011;55756;45.582;11.484;2023-04-16T09:33:41;5.45;;;1.40;;
68765;SDS011;55756;45.582;11.484;2023-04-16T09:36:08;3.95;;;1.30;;
68765;SDS011;55756;45.582;11.484;2023-04-16T09:38:44;4.03;;;1.10;;
68765;SDS011;55756;45.582;11.484;2023-04-16T09:41:14;3.63;;;1.30;;
68765;SDS011;55756;45.582;11.484;2023-04-16T09:43:41;4.05;;;1.40;;
68765;SDS011;55756;45.582;11.484;2023-04-16T09:46:36;4.88;;;1.17;;
68765;SDS011;55756;45.582;11.484;2023-04-16T09:49:15;3.92;;;1.30;;
68765;SDS011;55756;45.582;11.484;2023-04-16T09:51:46;2.42;;;1.13;;
68765;SDS011;55756;45.582;11.484;2023-04-16T09:54:14;2.95;;;1.10;;
68765;SDS011;55756;45.582;11.484;2023-04-16T09:56:41;3.58;;;1.20;;
68765;SDS011;55756;45.582;11.484;2023-04-16T09:59:08;4.40;;;1.15;;
68765;SDS011;55756;45.582;11.484;2023-04-16T10:01:59;4.85;;;1.48;;
68765;SDS011;55756;45.582;11.484;2023-04-16T10:04:25;3.28;;;1.20;;
68765;SDS011;55756;45.582;11.484;2023-04-16T10:07:01;4.13;;;1.20;;
68765;SDS011;55756;45.582;11.484;2023-04-16T10:09:38;3.03;;;1.10;;
68765;SDS011;55756;45.582;11.484;2023-04-16T10:12:05;4.20;;;1.20;;
68765;SDS011;55756;45.582;11.484;2023-04-16T10:14:32;2.88;;;1.30;;
68765;SDS011;55756;45.582;11.484;2023-04-16T10:16:58;5.45;;;1.40;;
68765;SDS011;55756;45.582;11.484;2023-04-16T10:19:25;4.70;;;1.50;;
68765;SDS011;55756;45.582;11.484;2023-04-16T10:21:52;4.18;;;1.60;;
68765;SDS011;55756;45.582;11.484;2023-04-16T10:24:19;2.55;;;1.20;;
68765;SDS011;55756;45.582;11.484;2023-04-16T10:26:46;3.47;;;1.33;;
68765;SDS011;55756;45.582;11.484;2023-04-16T10:29:14;3.87;;;1.40;;
68765;SDS011;55756;45.582;11.484;2023-04-16T10:31:45;3.13;;;1.38;;
68765;SDS011;55756;45.582;11.484;2023-04-16T10:34:13;7.90;;;1.50;;
68765;SDS011;55756;45.582;11.484;2023-04-16T10:36:41;5.60;;;1.60;;
68765;SDS011;55756;45.582;11.484;2023-04-16T10:39:10;4.47;;;1.48;;
68765;SDS011;55756;45.582;11.484;2023-04-16T10:41:38;6.95;;;1.50;;
68765;SDS011;55756;45.582;11.484;2023-04-16T10:44:04;3.15;;;1.48;;
68765;SDS011;55756;45.582;11.484;2023-04-16T10:46:40;5.15;;;1.50;;
68765;SDS011;55756;45.582;11.484;2023-04-16T10:49:14;5.88;;;1.92;;
68765;SDS011;55756;45.582;11.484;2023-04-16T10:54:23;6.53;;;2.50;;
68765;SDS011;55756;45.582;11.484;2023-04-16T10:56:55;5.60;;;2.20;;
68765;SDS011;55756;45.582;11.484;2023-04-16T10:59:22;10.85;;;5.57;;
68765;SDS011;55756;45.582;11.484;2023-04-16T11:01:50;8.40;;;3.88;;
68765;SDS011;55756;45.582;11.484;2023-04-16T11:09:44;10.23;;;4.90;;
68765;SDS011;55756;45.582;11.484;2023-04-16T11:12:20;7.70;;;3.63;;
68765;SDS011;55756;45.582;11.484;2023-04-16T11:14:52;8.60;;;3.50;;
68765;SDS011;55756;45.582;11.484;2023-04-16T11:20:05;7.97;;;3.60;;
68765;SDS011;55756;45.582;11.484;2023-04-16T11:22:36;8.48;;;3.78;;
68765;SDS011;55756;45.582;11.484;2023-04-16T11:25:02;8.35;;;3.40;;
68765;SDS011;55756;45.582;11.484;2023-04-16T11:27:29;8.07;;;3.50;;
68765;SDS011;55756;45.582;11.484;2023-04-16T11:30:02;6.82;;;3.22;;
68765;SDS011;55756;45.582;11.484;2023-04-16T11:32:30;8.52;;;3.40;;
68765;SDS011;55756;45.582;11.484;2023-04-16T11:34:57;7.43;;;3.22;;
68765;SDS011;55756;45.582;11.484;2023-04-16T11:37:31;6.97;;;2.70;;
68765;SDS011;55756;45.582;11.484;2023-04-16T11:40:01;6.55;;;2.45;;
68765;SDS011;55756;45.582;11.484;2023-04-16T11:42:30;5.78;;;2.40;;
68765;SDS011;55756;45.582;11.484;2023-04-16T11:44:58;6.10;;;2.72;;
68765;SDS011;55756;45.582;11.484;2023-04-16T11:47:25;8.10;;;3.20;;
68765;SDS011;55756;45.582;11.484;2023-04-16T11:49:51;7.20;;;3.20;;
68765;SDS011;55756;45.582;11.484;2023-04-16T11:52:24;8.98;;;2.67;;
68765;SDS011;55756;45.582;11.484;2023-04-16T11:54:55;7.78;;;3.20;;
68765;SDS011;55756;45.582;11.484;2023-04-16T11:57:28;6.25;;;2.53;;
68765;SDS011;55756;45.582;11.484;2023-04-16T11:59:56;8.20;;;3.67;;
68765;SDS011;55756;45.582;11.484;2023-04-16T12:07:56;7.25;;;2.80;;
68765;SDS011;55756;45.582;11.484;2023-04-16T12:10:22;6.13;;;2.40;;
68765;SDS011;55756;45.582;11.484;2023-04-16T12:12:48;7.57;;;2.70;;
68765;SDS011;55756;45.582;11.484;2023-04-16T12:15:14;7.05;;;2.40;;
68765;SDS011;55756;45.582;11.484;2023-04-16T12:17:40;7.35;;;2.25;;
68765;SDS011;55756;45.582;11.484;2023-04-16T12:20:09;4.38;;;1.70;;
68765;SDS011;55756;45.582;11.484;2023-04-16T12:22:46;4.00;;;1.55;;
68765;SDS011;55756;45.582;11.484;2023-04-16T12:25:14;4.55;;;1.80;;
68765;SDS011;55756;45.582;11.484;2023-04-16T12:27:48;5.75;;;2.10;;
68765;SDS011;55756;45.582;11.484;2023-04-16T12:30:20;5.05;;;1.85;;
68765;SDS011;55756;45.582;11.484;2023-04-16T12:32:47;6.25;;;1.90;;
68765;SDS011;55756;45.582;11.484;2023-04-16T12:35:31;4.40;;;1.80;;
68765;SDS011;55756;45.582;11.484;2023-04-16T12:37:57;3.03;;;1.58;;
68765;SDS011;55756;45.582;11.484;2023-04-16T12:40:24;5.13;;;1.83;;
68765;SDS011;55756;45.582;11.484;2023-04-16T12:42:50;5.68;;;2.20;;
68765;SDS011;55756;45.582;11.484;2023-04-16T12:45:15;5.55;;;1.77;;
68765;SDS011;55756;45.582;11.484;2023-04-16T12:47:41;5.75;;;2.05;;
68765;SDS011;55756;45.582;11.484;2023-04-16T12:50:07;4.95;;;1.90;;
68765;SDS011;55756;45.582;11.484;2023-04-16T12:52:33;5.00;;;1.90;;
68765;SDS011;55756;45.582;11.484;2023-04-16T12:55:00;3.33;;;1.50;;
68765;SDS011;55756;45.582;11.484;2023-04-16T12:57:27;4.85;;;1.98;;
68765;SDS011;55756;45.582;11.484;2023-04-16T13:00:02;3.75;;;1.50;;
68765;SDS011;55756;45.582;11.484;2023-04-16T13:02:30;3.75;;;1.48;;
68765;SDS011;55756;45.582;11.484;2023-04-16T13:04:56;5.53;;;1.90;;
68765;SDS011;55756;45.582;11.484;2023-04-16T13:07:23;3.50;;;1.60;;
68765;SDS011;55756;45.582;11.484;2023-04-16T13:09:50;5.47;;;1.60;;
68765;SDS011;55756;45.582;11.484;2023-04-16T13:12:16;4.93;;;1.55;;
68765;SDS011;55756;45.582;11.484;2023-04-16T13:14:43;4.03;;;1.40;;
68765;SDS011;55756;45.582;11.484;2023-04-16T13:17:10;4.82;;;1.73;;
68765;SDS011;55756;45.582;11.484;2023-04-16T13:19:36;3.95;;;1.60;;
68765;SDS011;55756;45.582;11.484;2023-04-16T13:22:02;3.85;;;1.50;;
68765;SDS011;55756;45.582;11.484;2023-04-16T13:24:28;4.07;;;1.40;;
68765;SDS011;55756;45.582;11.484;2023-04-16T13:26:55;4.97;;;1.33;;
68765;SDS011;55756;45.582;11.484;2023-04-16T13:29:21;4.22;;;1.30;;
68765;SDS011;55756;45.582;11.484;2023-04-16T13:31:47;3.75;;;1.45;;
68765;SDS011;55756;45.582;11.484;2023-04-16T13:34:13;3.72;;;1.60;;
68765;SDS011;55756;45.582;11.484;2023-04-16T13:36:39;3.58;;;1.40;;
68765;SDS011;55756;45.582;11.484;2023-04-16T13:39:04;3.58;;;1.50;;
68765;SDS011;55756;45.582;11.484;2023-04-16T13:41:37;5.93;;;1.42;;
68765;SDS011;55756;45.582;11.484;2023-04-16T13:46:29;4.18;;;1.60;;
68765;SDS011;55756;45.582;11.484;2023-04-16T13:48:55;5.35;;;1.90;;
68765;SDS011;55756;45.582;11.484;2023-04-16T13:51:21;4.93;;;1.52;;
68765;SDS011;55756;45.582;11.484;2023-04-16T13:53:47;3.75;;;1.63;;
68765;SDS011;55756;45.582;11.484;2023-04-16T13:56:13;4.07;;;1.60;;
68765;SDS011;55756;45.582;11.484;2023-04-16T13:58:39;5.65;;;1.80;;
68765;SDS011;55756;45.582;11.484;2023-04-16T14:01:05;3.50;;;1.60;;
68765;SDS011;55756;45.582;11.484;2023-04-16T14:03:31;3.17;;;1.42;;
68765;SDS011;55756;45.582;11.484;2023-04-16T14:06:00;6.45;;;1.60;;
68765;SDS011;55756;45.582;11.484;2023-04-16T14:08:26;5.38;;;1.77;;
68765;SDS011;55756;45.582;11.484;2023-04-16T14:10:55;4.78;;;2.03;;
68765;SDS011;55756;45.582;11.484;2023-04-16T14:13:22;4.00;;;1.90;;
68765;SDS011;55756;45.582;11.484;2023-04-16T14:15:53;5.32;;;1.65;;
68765;SDS011;55756;45.582;11.484;2023-04-16T14:18:31;4.53;;;1.90;;
68765;SDS011;55756;45.582;11.484;2023-04-16T14:21:01;4.13;;;1.65;;
68765;SDS011;55756;45.582;11.484;2023-04-16T14:23:27;5.90;;;2.00;;
68765;SDS011;55756;45.582;11.484;2023-04-16T14:25:56;5.13;;;2.00;;
68765;SDS011;55756;45.582;11.484;2023-04-16T14:28:22;6.03;;;2.22;;
68765;SDS011;55756;45.582;11.484;2023-04-16T14:30:48;4.97;;;1.80;;
68765;SDS011;55756;45.582;11.484;2023-04-16T14:33:13;4.15;;;1.70;;
68765;SDS011;55756;45.582;11.484;2023-04-16T14:35:39;5.22;;;1.70;;
68765;SDS011;55756;45.582;11.484;2023-04-16T14:38:05;8.75;;;2.05;;
68765;SDS011;55756;45.582;11.484;2023-04-16T14:40:31;4.35;;;1.90;;
68765;SDS011;55756;45.582;11.484;2023-04-16T14:42:57;5.00;;;1.60;;
68765;SDS011;55756;45.582;11.484;2023-04-16T14:45:22;4.78;;;1.73;;
68765;SDS011;55756;45.582;11.484;2023-04-16T14:47:50;4.93;;;1.80;;
68765;SDS011;55756;45.582;11.484;2023-04-16T14:50:16;4.20;;;1.70;;
68765;SDS011;55756;45.582;11.484;2023-04-16T14:52:41;4.65;;;1.80;;
68765;SDS011;55756;45.582;11.484;2023-04-16T14:55:07;4.43;;;1.70;;
68765;SDS011;55756;45.582;11.484;2023-04-16T14:57:33;4.68;;;1.63;;